sensor_id;sensor_type;location;lat;lon;timestamp;temperature;humidity
14053;DHT22;7101;51.600;7.310;2023-08-30T00:00:32;15.00;99.90
14053;DHT22;7101;51.600;7.310;2023-08-30T00:02:59;15.00;99.90
14053;DHT22;7101;51.600;7.310;2023-08-30T00:05:26;15.00;99.90
14053;DHT22;7101;51.600;7.310;2023-08-30T00:07:55;15.10;99.90
14053;DHT22;7101;51.600;7.310;2023-08-30T00:10:23;15.00;99.90
14053;DHT22;7101;51.600;7.310;2023-08-30T00:12:50;15.00;99.90
14053;DHT22;7101;51.600;7.310;2023-08-30T00:15:17;15.00;99.90
14053;DHT22;7101;51.600;7.310;2023-08-30T00:17:44;14.90;99.90
14053;DHT22;7101;51.600;7.310;2023-08-30T00:20:11;14.80;99.90
14053;DHT22;7101;51.600;7.310;2023-08-30T00:22:38;14.70;99.90
14053;DHT22;7101;51.600;7.310;2023-08-30T00:25:06;14.60;99.90
14053;DHT22;7101;51.600;7.310;2023-08-30T00:27:35;14.50;99.90
14053;DHT22;7101;51.600;7.310;2023-08-30T00:30:02;14.50;99.90
14053;DHT22;7101;51.600;7.310;2023-08-30T00:32:30;14.40;99.90
14053;DHT22;7101;51.600;7.310;2023-08-30T00:34:57;14.40;99.90
14053;DHT22;7101;51.600;7.310;2023-08-30T00:37:24;14.30;99.90
14053;DHT22;7101;51.600;7.310;2023-08-30T00:39:51;14.20;99.90
14053;DHT22;7101;51.600;7.310;2023-08-30T00:42:18;14.10;99.90
14053;DHT22;7101;51.600;7.310;2023-08-30T00:44:48;14.10;99.90
14053;DHT22;7101;51.600;7.310;2023-08-30T00:47:16;14.00;99.90
14053;DHT22;7101;51.600;7.310;2023-08-30T00:49:44;13.90;99.90
14053;DHT22;7101;51.600;7.310;2023-08-30T00:52:13;13.90;99.90
14053;DHT22;7101;51.600;7.310;2023-08-30T00:54:40;13.80;99.90
14053;DHT22;7101;51.600;7.310;2023-08-30T00:57:08;13.80;99.90
14053;DHT22;7101;51.600;7.310;2023-08-30T00:59:35;13.70;99.90
14053;DHT22;7101;51.600;7.310;2023-08-30T01:02:07;13.70;99.90
14053;DHT22;7101;51.600;7.310;2023-08-30T01:04:34;13.70;99.90
14053;DHT22;7101;51.600;7.310;2023-08-30T01:07:00;13.70;99.90
14053;DHT22;7101;51.600;7.310;2023-08-30T01:09:28;13.70;99.90
14053;DHT22;7101;51.600;7.310;2023-08-30T01:12:00;13.70;99.90
14053;DHT22;7101;51.600;7.310;2023-08-30T01:14:38;13.70;99.90
14053;DHT22;7101;51.600;7.310;2023-08-30T01:17:10;13.60;99.90
14053;DHT22;7101;51.600;7.310;2023-08-30T01:19:45;13.50;99.90
14053;DHT22;7101;51.600;7.310;2023-08-30T01:22:17;13.40;99.90
14053;DHT22;7101;51.600;7.310;2023-08-30T01:24:55;13.20;99.90
14053;DHT22;7101;51.600;7.310;2023-08-30T01:27:26;13.20;99.90
14053;DHT22;7101;51.600;7.310;2023-08-30T01:29:58;13.10;99.90
14053;DHT22;7101;51.600;7.310;2023-08-30T01:32:26;13.10;99.90
14053;DHT22;7101;51.600;7.310;2023-08-30T01:34:55;13.00;99.90
14053;DHT22;7101;51.600;7.310;2023-08-30T01:37:22;13.00;99.90
14053;DHT22;7101;51.600;7.310;2023-08-30T01:39:51;13.00;99.90
14053;DHT22;7101;51.600;7.310;2023-08-30T01:42:18;13.00;99.90
14053;DHT22;7101;51.600;7.310;2023-08-30T01:44:51;13.00;99.90
14053;DHT22;7101;51.600;7.310;2023-08-30T01:47:22;12.90;99.90
14053;DHT22;7101;51.600;7.310;2023-08-30T01:49:49;12.90;99.90
14053;DHT22;7101;51.600;7.310;2023-08-30T01:52:16;13.00;99.90
14053;DHT22;7101;51.600;7.310;2023-08-30T01:54:44;12.90;99.90
14053;DHT22;7101;51.600;7.310;2023-08-30T01:57:12;12.80;99.90
14053;DHT22;7101;51.600;7.310;2023-08-30T01:59:40;12.80;99.90
14053;DHT22;7101;51.600;7.310;2023-08-30T02:02:08;12.80;99.90
14053;DHT22;7101;51.600;7.310;2023-08-30T02:04:35;12.70;99.90
14053;DHT22;7101;51.600;7.310;2023-08-30T02:07:03;12.80;99.90
14053;DHT22;7101;51.600;7.310;2023-08-30T02:09:36;12.70;99.90
14053;DHT22;7101;51.600;7.310;2023-08-30T02:12:10;12.70;99.90
14053;DHT22;7101;51.600;7.310;2023-08-30T02:14:39;12.60;99.90
14053;DHT22;7101;51.600;7.310;2023-08-30T02:17:08;12.60;99.90
14053;DHT22;7101;51.600;7.310;2023-08-30T02:19:36;12.50;99.90
14053;DHT22;7101;51.600;7.310;2023-08-30T02:22:03;12.50;99.90
14053;DHT22;7101;51.600;7.310;2023-08-30T02:24:30;12.50;99.90
14053;DHT22;7101;51.600;7.310;2023-08-30T02:26:57;12.50;99.90
14053;DHT22;7101;51.600;7.310;2023-08-30T02:29:24;12.50;99.90
14053;DHT22;7101;51.600;7.310;2023-08-30T02:31:51;12.50;99.90
14053;DHT22;7101;51.600;7.310;2023-08-30T02:34:20;12.50;99.90
14053;DHT22;7101;51.600;7.310;2023-08-30T02:36:47;12.50;99.90
14053;DHT22;7101;51.600;7.310;2023-08-30T02:39:14;12.50;99.90
14053;DHT22;7101;51.600;7.310;2023-08-30T02:41:42;12.40;99.90
14053;DHT22;7101;51.600;7.310;2023-08-30T02:44:11;12.40;99.90
14053;DHT22;7101;51.600;7.310;2023-08-30T02:46:38;12.40;99.90
14053;DHT22;7101;51.600;7.310;2023-08-30T02:49:05;12.40;99.90
14053;DHT22;7101;51.600;7.310;2023-08-30T02:51:34;12.30;99.90
14053;DHT22;7101;51.600;7.310;2023-08-30T02:54:01;12.30;99.90
14053;DHT22;7101;51.600;7.310;2023-08-30T02:56:28;12.20;99.90
14053;DHT22;7101;51.600;7.310;2023-08-30T02:58:55;12.20;99.90
14053;DHT22;7101;51.600;7.310;2023-08-30T03:01:22;12.20;99.90
14053;DHT22;7101;51.600;7.310;2023-08-30T03:03:49;12.10;99.90
14053;DHT22;7101;51.600;7.310;2023-08-30T03:06:16;12.20;99.90
14053;DHT22;7101;51.600;7.310;2023-08-30T03:08:45;12.20;99.90
14053;DHT22;7101;51.600;7.310;2023-08-30T03:11:13;12.20;99.90
14053;DHT22;7101;51.600;7.310;2023-08-30T03:13:40;12.10;99.90
14053;DHT22;7101;51.600;7.310;2023-08-30T03:16:10;12.10;99.90
14053;DHT22;7101;51.600;7.310;2023-08-30T03:18:38;12.20;99.90
14053;DHT22;7101;51.600;7.310;2023-08-30T03:21:06;12.20;99.90
14053;DHT22;7101;51.600;7.310;2023-08-30T03:23:34;12.20;99.90
14053;DHT22;7101;51.600;7.310;2023-08-30T03:26:09;12.20;99.90
14053;DHT22;7101;51.600;7.310;2023-08-30T03:28:36;12.10;99.90
14053;DHT22;7101;51.600;7.310;2023-08-30T03:31:11;12.10;99.90
14053;DHT22;7101;51.600;7.310;2023-08-30T03:33:38;12.10;99.90
14053;DHT22;7101;51.600;7.310;2023-08-30T03:36:07;12.10;99.90
14053;DHT22;7101;51.600;7.310;2023-08-30T03:38:34;12.00;99.90
14053;DHT22;7101;51.600;7.310;2023-08-30T03:41:03;12.00;99.90
14053;DHT22;7101;51.600;7.310;2023-08-30T03:43:31;12.00;99.90
14053;DHT22;7101;51.600;7.310;2023-08-30T03:46:00;12.00;99.90
14053;DHT22;7101;51.600;7.310;2023-08-30T03:48:29;12.00;99.90
14053;DHT22;7101;51.600;7.310;2023-08-30T03:50:56;11.90;99.90
14053;DHT22;7101;51.600;7.310;2023-08-30T03:53:24;11.90;99.90
14053;DHT22;7101;51.600;7.310;2023-08-30T03:55:51;11.80;99.90
14053;DHT22;7101;51.600;7.310;2023-08-30T03:58:18;11.80;99.90
14053;DHT22;7101;51.600;7.310;2023-08-30T04:00:47;11.80;99.90
14053;DHT22;7101;51.600;7.310;2023-08-30T04:03:15;11.80;99.90
14053;DHT22;7101;51.600;7.310;2023-08-30T04:05:42;11.70;99.90
14053;DHT22;7101;51.600;7.310;2023-08-30T04:08:10;11.80;99.90
14053;DHT22;7101;51.600;7.310;2023-08-30T04:10:38;11.70;99.90
14053;DHT22;7101;51.600;7.310;2023-08-30T04:13:06;11.70;99.90
14053;DHT22;7101;51.600;7.310;2023-08-30T04:15:34;11.70;99.90
14053;DHT22;7101;51.600;7.310;2023-08-30T04:18:03;11.70;99.90
14053;DHT22;7101;51.600;7.310;2023-08-30T04:20:30;11.60;99.90
14053;DHT22;7101;51.600;7.310;2023-08-30T04:22:58;11.60;99.90
14053;DHT22;7101;51.600;7.310;2023-08-30T04:25:27;11.60;99.90
14053;DHT22;7101;51.600;7.310;2023-08-30T04:27:54;11.60;99.90
14053;DHT22;7101;51.600;7.310;2023-08-30T04:30:21;11.50;99.90
14053;DHT22;7101;51.600;7.310;2023-08-30T04:32:48;11.60;99.90
14053;DHT22;7101;51.600;7.310;2023-08-30T04:35:16;11.60;99.90
14053;DHT22;7101;51.600;7.310;2023-08-30T04:37:43;11.60;99.90
14053;DHT22;7101;51.600;7.310;2023-08-30T04:40:10;11.60;99.90
14053;DHT22;7101;51.600;7.310;2023-08-30T04:42:37;11.50;99.90
14053;DHT22;7101;51.600;7.310;2023-08-30T04:45:07;11.50;99.90
14053;DHT22;7101;51.600;7.310;2023-08-30T04:47:35;11.50;99.90
14053;DHT22;7101;51.600;7.310;2023-08-30T04:50:02;11.50;99.90
14053;DHT22;7101;51.600;7.310;2023-08-30T04:52:31;11.50;99.90
14053;DHT22;7101;51.600;7.310;2023-08-30T04:54:58;11.50;99.90
14053;DHT22;7101;51.600;7.310;2023-08-30T04:57:25;11.60;99.90
14053;DHT22;7101;51.600;7.310;2023-08-30T04:59:52;11.60;99.90
14053;DHT22;7101;51.600;7.310;2023-08-30T05:02:20;11.60;99.90
14053;DHT22;7101;51.600;7.310;2023-08-30T05:04:47;11.60;99.90
14053;DHT22;7101;51.600;7.310;2023-08-30T05:07:15;11.60;99.90
14053;DHT22;7101;51.600;7.310;2023-08-30T05:09:43;11.70;99.90
14053;DHT22;7101;51.600;7.310;2023-08-30T05:12:10;11.80;99.90
14053;DHT22;7101;51.600;7.310;2023-08-30T05:14:37;11.80;99.90
14053;DHT22;7101;51.600;7.310;2023-08-30T05:17:04;11.90;99.90
14053;DHT22;7101;51.600;7.310;2023-08-30T05:19:31;11.90;99.90
14053;DHT22;7101;51.600;7.310;2023-08-30T05:21:58;12.00;99.90
14053;DHT22;7101;51.600;7.310;2023-08-30T05:24:25;12.00;99.90
14053;DHT22;7101;51.600;7.310;2023-08-30T05:26:55;12.10;99.90
14053;DHT22;7101;51.600;7.310;2023-08-30T05:29:22;12.20;99.90
14053;DHT22;7101;51.600;7.310;2023-08-30T05:31:49;12.20;99.90
14053;DHT22;7101;51.600;7.310;2023-08-30T05:34:16;12.30;99.90
14053;DHT22;7101;51.600;7.310;2023-08-30T05:36:43;12.30;99.90
14053;DHT22;7101;51.600;7.310;2023-08-30T05:39:09;12.40;99.90
14053;DHT22;7101;51.600;7.310;2023-08-30T05:41:36;12.40;99.90
14053;DHT22;7101;51.600;7.310;2023-08-30T05:44:06;12.60;99.90
14053;DHT22;7101;51.600;7.310;2023-08-30T05:46:33;12.60;99.90
14053;DHT22;7101;51.600;7.310;2023-08-30T05:49:00;12.70;99.90
14053;DHT22;7101;51.600;7.310;2023-08-30T05:51:28;12.90;99.90
14053;DHT22;7101;51.600;7.310;2023-08-30T05:53:55;13.10;99.90
14053;DHT22;7101;51.600;7.310;2023-08-30T05:56:22;13.30;99.90
14053;DHT22;7101;51.600;7.310;2023-08-30T05:58:49;13.60;99.90
14053;DHT22;7101;51.600;7.310;2023-08-30T06:01:18;13.90;99.90
14053;DHT22;7101;51.600;7.310;2023-08-30T06:03:45;14.30;99.90
14053;DHT22;7101;51.600;7.310;2023-08-30T06:06:12;14.50;99.90
14053;DHT22;7101;51.600;7.310;2023-08-30T06:08:39;14.80;99.90
14053;DHT22;7101;51.600;7.310;2023-08-30T06:11:07;15.00;99.90
14053;DHT22;7101;51.600;7.310;2023-08-30T06:13:34;15.30;99.90
14053;DHT22;7101;51.600;7.310;2023-08-30T06:16:01;15.70;99.90
14053;DHT22;7101;51.600;7.310;2023-08-30T06:18:31;15.80;99.90
14053;DHT22;7101;51.600;7.310;2023-08-30T06:20:58;16.30;99.90
14053;DHT22;7101;51.600;7.310;2023-08-30T06:23:25;16.60;99.90
14053;DHT22;7101;51.600;7.310;2023-08-30T06:25:57;16.80;99.90
14053;DHT22;7101;51.600;7.310;2023-08-30T06:28:24;17.00;99.90
14053;DHT22;7101;51.600;7.310;2023-08-30T06:30:51;17.10;99.90
14053;DHT22;7101;51.600;7.310;2023-08-30T06:33:18;16.90;99.90
14053;DHT22;7101;51.600;7.310;2023-08-30T06:35:49;16.90;99.90
14053;DHT22;7101;51.600;7.310;2023-08-30T06:38:16;17.00;99.90
14053;DHT22;7101;51.600;7.310;2023-08-30T06:40:44;17.30;99.90
14053;DHT22;7101;51.600;7.310;2023-08-30T06:43:11;17.70;99.90
14053;DHT22;7101;51.600;7.310;2023-08-30T06:45:38;17.90;99.90
14053;DHT22;7101;51.600;7.310;2023-08-30T06:48:06;18.20;99.90
14053;DHT22;7101;51.600;7.310;2023-08-30T06:50:34;18.40;99.90
14053;DHT22;7101;51.600;7.310;2023-08-30T06:53:03;18.70;99.90
14053;DHT22;7101;51.600;7.310;2023-08-30T06:55:30;19.00;99.90
14053;DHT22;7101;51.600;7.310;2023-08-30T06:57:57;19.60;99.90
14053;DHT22;7101;51.600;7.310;2023-08-30T07:00:24;20.50;99.90
14053;DHT22;7101;51.600;7.310;2023-08-30T07:02:51;20.50;99.90
14053;DHT22;7101;51.600;7.310;2023-08-30T07:05:18;20.90;99.90
14053;DHT22;7101;51.600;7.310;2023-08-30T07:07:45;21.10;99.90
14053;DHT22;7101;51.600;7.310;2023-08-30T07:10:13;21.40;99.90
14053;DHT22;7101;51.600;7.310;2023-08-30T07:12:40;21.60;99.90
14053;DHT22;7101;51.600;7.310;2023-08-30T07:15:08;22.00;99.90
14053;DHT22;7101;51.600;7.310;2023-08-30T07:17:36;22.10;99.90
14053;DHT22;7101;51.600;7.310;2023-08-30T07:20:03;22.30;99.90
14053;DHT22;7101;51.600;7.310;2023-08-30T07:22:34;22.70;99.90
14053;DHT22;7101;51.600;7.310;2023-08-30T07:25:01;22.40;99.90
14053;DHT22;7101;51.600;7.310;2023-08-30T07:27:32;21.70;99.90
14053;DHT22;7101;51.600;7.310;2023-08-30T07:30:00;20.50;99.90
14053;DHT22;7101;51.600;7.310;2023-08-30T07:32:30;20.10;99.90
14053;DHT22;7101;51.600;7.310;2023-08-30T07:34:57;19.80;99.90
14053;DHT22;7101;51.600;7.310;2023-08-30T07:37:25;19.30;99.90
14053;DHT22;7101;51.600;7.310;2023-08-30T07:39:55;19.20;99.90
14053;DHT22;7101;51.600;7.310;2023-08-30T07:42:22;19.00;99.90
14053;DHT22;7101;51.600;7.310;2023-08-30T07:44:51;19.20;99.90
14053;DHT22;7101;51.600;7.310;2023-08-30T07:47:17;20.30;99.90
14053;DHT22;7101;51.600;7.310;2023-08-30T07:49:44;21.00;99.90
14053;DHT22;7101;51.600;7.310;2023-08-30T07:52:11;21.50;99.90
14053;DHT22;7101;51.600;7.310;2023-08-30T07:54:44;22.00;99.90
14053;DHT22;7101;51.600;7.310;2023-08-30T07:57:12;22.50;99.90
14053;DHT22;7101;51.600;7.310;2023-08-30T07:59:39;22.70;99.90
14053;DHT22;7101;51.600;7.310;2023-08-30T08:02:08;22.60;99.90
14053;DHT22;7101;51.600;7.310;2023-08-30T08:04:42;23.10;99.90
14053;DHT22;7101;51.600;7.310;2023-08-30T08:07:10;23.70;99.90
14053;DHT22;7101;51.600;7.310;2023-08-30T08:09:37;24.00;99.90
14053;DHT22;7101;51.600;7.310;2023-08-30T08:12:05;23.80;99.90
14053;DHT22;7101;51.600;7.310;2023-08-30T08:14:32;23.80;99.90
14053;DHT22;7101;51.600;7.310;2023-08-30T08:16:59;23.50;99.90
14053;DHT22;7101;51.600;7.310;2023-08-30T08:19:31;23.20;99.90
14053;DHT22;7101;51.600;7.310;2023-08-30T08:21:58;23.10;99.90
14053;DHT22;7101;51.600;7.310;2023-08-30T08:24:27;23.40;99.90
14053;DHT22;7101;51.600;7.310;2023-08-30T08:26:54;23.70;99.90
14053;DHT22;7101;51.600;7.310;2023-08-30T08:29:21;23.40;99.90
14053;DHT22;7101;51.600;7.310;2023-08-30T08:31:48;23.30;99.90
14053;DHT22;7101;51.600;7.310;2023-08-30T08:34:15;23.20;99.90
14053;DHT22;7101;51.600;7.310;2023-08-30T08:36:44;23.00;99.90
14053;DHT22;7101;51.600;7.310;2023-08-30T08:39:11;22.70;99.90
14053;DHT22;7101;51.600;7.310;2023-08-30T08:41:41;23.00;99.90
14053;DHT22;7101;51.600;7.310;2023-08-30T08:44:08;23.50;99.90
14053;DHT22;7101;51.600;7.310;2023-08-30T08:46:36;23.40;99.90
14053;DHT22;7101;51.600;7.310;2023-08-30T08:49:09;23.20;99.90
14053;DHT22;7101;51.600;7.310;2023-08-30T08:51:37;23.20;99.90
14053;DHT22;7101;51.600;7.310;2023-08-30T08:54:07;23.10;99.90
14053;DHT22;7101;51.600;7.310;2023-08-30T08:56:36;23.20;99.90
14053;DHT22;7101;51.600;7.310;2023-08-30T08:59:03;23.50;99.90
14053;DHT22;7101;51.600;7.310;2023-08-30T09:01:31;23.20;99.90
14053;DHT22;7101;51.600;7.310;2023-08-30T09:04:04;22.60;99.90
14053;DHT22;7101;51.600;7.310;2023-08-30T09:06:32;22.10;99.90
14053;DHT22;7101;51.600;7.310;2023-08-30T09:09:00;21.80;99.90
14053;DHT22;7101;51.600;7.310;2023-08-30T09:11:30;21.60;99.90
14053;DHT22;7101;51.600;7.310;2023-08-30T09:13:57;22.00;99.90
14053;DHT22;7101;51.600;7.310;2023-08-30T09:16:24;21.70;99.90
14053;DHT22;7101;51.600;7.310;2023-08-30T09:18:58;21.60;99.90
14053;DHT22;7101;51.600;7.310;2023-08-30T09:21:25;21.20;99.90
14053;DHT22;7101;51.600;7.310;2023-08-30T09:23:59;21.10;99.90
14053;DHT22;7101;51.600;7.310;2023-08-30T09:26:27;21.00;99.90
14053;DHT22;7101;51.600;7.310;2023-08-30T09:29:01;20.90;99.90
14053;DHT22;7101;51.600;7.310;2023-08-30T09:31:33;20.70;99.90
14053;DHT22;7101;51.600;7.310;2023-08-30T09:34:00;21.00;99.90
14053;DHT22;7101;51.600;7.310;2023-08-30T09:36:33;21.00;99.90
14053;DHT22;7101;51.600;7.310;2023-08-30T09:39:04;21.10;99.90
14053;DHT22;7101;51.600;7.310;2023-08-30T09:41:32;21.00;99.90
14053;DHT22;7101;51.600;7.310;2023-08-30T09:44:06;21.20;99.90
14053;DHT22;7101;51.600;7.310;2023-08-30T09:46:40;21.60;99.90
14053;DHT22;7101;51.600;7.310;2023-08-30T09:49:08;22.00;99.90
14053;DHT22;7101;51.600;7.310;2023-08-30T09:51:35;22.10;99.90
14053;DHT22;7101;51.600;7.310;2023-08-30T09:54:05;22.00;99.90
14053;DHT22;7101;51.600;7.310;2023-08-30T09:56:35;21.90;99.90
14053;DHT22;7101;51.600;7.310;2023-08-30T09:59:05;22.00;99.90
14053;DHT22;7101;51.600;7.310;2023-08-30T10:01:32;22.20;99.90
14053;DHT22;7101;51.600;7.310;2023-08-30T10:04:04;22.30;99.90
14053;DHT22;7101;51.600;7.310;2023-08-30T10:06:32;22.10;99.90
14053;DHT22;7101;51.600;7.310;2023-08-30T10:09:02;22.20;99.90
14053;DHT22;7101;51.600;7.310;2023-08-30T10:11:31;22.00;99.90
14053;DHT22;7101;51.600;7.310;2023-08-30T10:14:03;22.10;99.90
14053;DHT22;7101;51.600;7.310;2023-08-30T10:16:37;21.70;99.90
14053;DHT22;7101;51.600;7.310;2023-08-30T10:19:10;21.50;99.90
14053;DHT22;7101;51.600;7.310;2023-08-30T10:21:40;21.20;99.90
14053;DHT22;7101;51.600;7.310;2023-08-30T10:24:11;20.40;99.90
14053;DHT22;7101;51.600;7.310;2023-08-30T10:26:43;19.70;99.90
14053;DHT22;7101;51.600;7.310;2023-08-30T10:29:13;19.00;99.90
14053;DHT22;7101;51.600;7.310;2023-08-30T10:31:43;18.50;99.90
14053;DHT22;7101;51.600;7.310;2023-08-30T10:34:14;18.00;99.90
14053;DHT22;7101;51.600;7.310;2023-08-30T10:36:42;17.30;99.90
14053;DHT22;7101;51.600;7.310;2023-08-30T10:39:11;17.00;99.90
14053;DHT22;7101;51.600;7.310;2023-08-30T10:41:54;16.80;99.90
14053;DHT22;7101;51.600;7.310;2023-08-30T10:44:25;16.70;99.90
14053;DHT22;7101;51.600;7.310;2023-08-30T10:46:52;16.90;99.90
14053;DHT22;7101;51.600;7.310;2023-08-30T10:49:19;16.90;99.90
14053;DHT22;7101;51.600;7.310;2023-08-30T10:51:55;16.60;99.90
14053;DHT22;7101;51.600;7.310;2023-08-30T10:54:22;16.50;99.90
14053;DHT22;7101;51.600;7.310;2023-08-30T10:56:55;16.50;99.90
14053;DHT22;7101;51.600;7.310;2023-08-30T10:59:24;16.60;99.90
14053;DHT22;7101;51.600;7.310;2023-08-30T11:01:53;16.50;99.90
14053;DHT22;7101;51.600;7.310;2023-08-30T11:04:21;16.60;99.90
14053;DHT22;7101;51.600;7.310;2023-08-30T11:06:49;16.60;99.90
14053;DHT22;7101;51.600;7.310;2023-08-30T11:09:18;16.50;99.90
14053;DHT22;7101;51.600;7.310;2023-08-30T11:11:50;16.50;99.90
14053;DHT22;7101;51.600;7.310;2023-08-30T11:14:19;16.50;99.90
14053;DHT22;7101;51.600;7.310;2023-08-30T11:16:47;16.60;99.90
14053;DHT22;7101;51.600;7.310;2023-08-30T11:19:14;16.70;99.90
14053;DHT22;7101;51.600;7.310;2023-08-30T11:21:44;16.60;99.90
14053;DHT22;7101;51.600;7.310;2023-08-30T11:24:12;16.50;99.90
14053;DHT22;7101;51.600;7.310;2023-08-30T11:26:39;16.30;99.90
14053;DHT22;7101;51.600;7.310;2023-08-30T11:29:06;16.20;99.90
14053;DHT22;7101;51.600;7.310;2023-08-30T11:31:34;16.20;99.90
14053;DHT22;7101;51.600;7.310;2023-08-30T11:34:02;16.10;99.90
14053;DHT22;7101;51.600;7.310;2023-08-30T11:36:31;16.10;99.90
14053;DHT22;7101;51.600;7.310;2023-08-30T11:38:58;16.20;99.90
14053;DHT22;7101;51.600;7.310;2023-08-30T11:41:27;16.20;99.90
14053;DHT22;7101;51.600;7.310;2023-08-30T11:43:54;16.10;99.90
14053;DHT22;7101;51.600;7.310;2023-08-30T11:46:22;16.10;99.90
14053;DHT22;7101;51.600;7.310;2023-08-30T11:48:51;16.10;99.90
14053;DHT22;7101;51.600;7.310;2023-08-30T11:51:19;16.20;99.90
14053;DHT22;7101;51.600;7.310;2023-08-30T11:53:46;16.20;99.90
14053;DHT22;7101;51.600;7.310;2023-08-30T11:56:14;16.10;99.90
14053;DHT22;7101;51.600;7.310;2023-08-30T11:58:42;16.10;99.90
14053;DHT22;7101;51.600;7.310;2023-08-30T12:01:11;16.00;99.90
14053;DHT22;7101;51.600;7.310;2023-08-30T12:03:40;16.00;99.90
14053;DHT22;7101;51.600;7.310;2023-08-30T12:06:10;16.10;99.90
14053;DHT22;7101;51.600;7.310;2023-08-30T12:08:40;16.10;99.90
14053;DHT22;7101;51.600;7.310;2023-08-30T12:11:17;16.20;99.90
14053;DHT22;7101;51.600;7.310;2023-08-30T12:13:45;16.30;99.90
14053;DHT22;7101;51.600;7.310;2023-08-30T12:16:17;16.40;99.90
14053;DHT22;7101;51.600;7.310;2023-08-30T12:18:47;16.60;99.90
14053;DHT22;7101;51.600;7.310;2023-08-30T12:21:14;16.60;99.90
14053;DHT22;7101;51.600;7.310;2023-08-30T12:23:43;16.70;99.90
14053;DHT22;7101;51.600;7.310;2023-08-30T12:26:10;16.70;99.90
14053;DHT22;7101;51.600;7.310;2023-08-30T12:28:38;16.80;99.90
14053;DHT22;7101;51.600;7.310;2023-08-30T12:31:06;16.70;99.90
14053;DHT22;7101;51.600;7.310;2023-08-30T12:33:34;16.60;99.90
14053;DHT22;7101;51.600;7.310;2023-08-30T12:36:04;16.50;99.90
14053;DHT22;7101;51.600;7.310;2023-08-30T12:38:31;16.20;99.90
14053;DHT22;7101;51.600;7.310;2023-08-30T12:41:00;16.20;99.90
14053;DHT22;7101;51.600;7.310;2023-08-30T12:43:28;16.40;99.90
14053;DHT22;7101;51.600;7.310;2023-08-30T12:45:55;16.60;99.90
14053;DHT22;7101;51.600;7.310;2023-08-30T12:48:23;16.80;99.90
14053;DHT22;7101;51.600;7.310;2023-08-30T12:50:50;17.00;99.90
14053;DHT22;7101;51.600;7.310;2023-08-30T12:53:17;16.90;99.90
14053;DHT22;7101;51.600;7.310;2023-08-30T12:55:44;16.90;99.90
14053;DHT22;7101;51.600;7.310;2023-08-30T12:58:13;16.90;99.90
14053;DHT22;7101;51.600;7.310;2023-08-30T13:00:40;16.90;99.90
14053;DHT22;7101;51.600;7.310;2023-08-30T13:03:07;16.70;99.90
14053;DHT22;7101;51.600;7.310;2023-08-30T13:05:34;16.80;99.90
14053;DHT22;7101;51.600;7.310;2023-08-30T13:08:03;16.90;99.90
14053;DHT22;7101;51.600;7.310;2023-08-30T13:10:30;16.70;99.90
14053;DHT22;7101;51.600;7.310;2023-08-30T13:12:57;16.90;99.90
14053;DHT22;7101;51.600;7.310;2023-08-30T13:15:25;17.10;99.90
14053;DHT22;7101;51.600;7.310;2023-08-30T13:17:53;17.10;99.90
14053;DHT22;7101;51.600;7.310;2023-08-30T13:20:21;17.10;99.90
14053;DHT22;7101;51.600;7.310;2023-08-30T13:22:48;17.20;99.90
14053;DHT22;7101;51.600;7.310;2023-08-30T13:25:15;17.20;99.90
14053;DHT22;7101;51.600;7.310;2023-08-30T13:27:42;17.20;99.90
14053;DHT22;7101;51.600;7.310;2023-08-30T13:30:09;17.40;99.90
14053;DHT22;7101;51.600;7.310;2023-08-30T13:32:37;17.30;99.90
14053;DHT22;7101;51.600;7.310;2023-08-30T13:35:05;17.10;99.90
14053;DHT22;7101;51.600;7.310;2023-08-30T13:37:32;16.90;99.90
14053;DHT22;7101;51.600;7.310;2023-08-30T13:39:59;16.70;99.90
14053;DHT22;7101;51.600;7.310;2023-08-30T13:42:26;16.70;99.90
14053;DHT22;7101;51.600;7.310;2023-08-30T13:44:56;16.60;99.90
14053;DHT22;7101;51.600;7.310;2023-08-30T13:47:23;16.50;99.90
14053;DHT22;7101;51.600;7.310;2023-08-30T13:49:54;16.30;99.90
14053;DHT22;7101;51.600;7.310;2023-08-30T13:52:21;16.20;99.90
14053;DHT22;7101;51.600;7.310;2023-08-30T13:54:50;16.10;99.90
14053;DHT22;7101;51.600;7.310;2023-08-30T13:57:18;16.10;99.90
14053;DHT22;7101;51.600;7.310;2023-08-30T13:59:48;16.00;99.90
14053;DHT22;7101;51.600;7.310;2023-08-30T14:02:15;15.90;99.90
14053;DHT22;7101;51.600;7.310;2023-08-30T14:04:43;15.80;99.90
14053;DHT22;7101;51.600;7.310;2023-08-30T14:07:12;15.70;99.90
14053;DHT22;7101;51.600;7.310;2023-08-30T14:09:41;15.60;99.90
14053;DHT22;7101;51.600;7.310;2023-08-30T14:12:08;15.70;99.90
14053;DHT22;7101;51.600;7.310;2023-08-30T14:14:35;15.70;99.90
14053;DHT22;7101;51.600;7.310;2023-08-30T14:17:04;15.70;99.90
14053;DHT22;7101;51.600;7.310;2023-08-30T14:19:34;15.70;99.90
14053;DHT22;7101;51.600;7.310;2023-08-30T14:22:03;15.70;99.90
14053;DHT22;7101;51.600;7.310;2023-08-30T14:24:33;15.70;99.90
14053;DHT22;7101;51.600;7.310;2023-08-30T14:27:06;15.70;99.90
14053;DHT22;7101;51.600;7.310;2023-08-30T14:29:36;15.80;99.90
14053;DHT22;7101;51.600;7.310;2023-08-30T14:32:08;15.90;99.90
14053;DHT22;7101;51.600;7.310;2023-08-30T14:34:36;16.00;99.90
14053;DHT22;7101;51.600;7.310;2023-08-30T14:37:03;16.00;99.90
14053;DHT22;7101;51.600;7.310;2023-08-30T14:39:32;16.00;99.90
14053;DHT22;7101;51.600;7.310;2023-08-30T14:42:00;16.00;99.90
14053;DHT22;7101;51.600;7.310;2023-08-30T14:44:27;15.90;99.90
14053;DHT22;7101;51.600;7.310;2023-08-30T14:46:54;15.80;99.90
14053;DHT22;7101;51.600;7.310;2023-08-30T14:49:21;15.80;99.90
14053;DHT22;7101;51.600;7.310;2023-08-30T14:51:48;15.60;99.90
14053;DHT22;7101;51.600;7.310;2023-08-30T14:54:17;15.50;99.90
14053;DHT22;7101;51.600;7.310;2023-08-30T14:56:48;15.40;99.90
14053;DHT22;7101;51.600;7.310;2023-08-30T14:59:15;15.40;99.90
14053;DHT22;7101;51.600;7.310;2023-08-30T15:01:42;15.40;99.90
14053;DHT22;7101;51.600;7.310;2023-08-30T15:04:09;15.50;99.90
14053;DHT22;7101;51.600;7.310;2023-08-30T15:06:36;15.50;99.90
14053;DHT22;7101;51.600;7.310;2023-08-30T15:09:09;15.40;99.90
14053;DHT22;7101;51.600;7.310;2023-08-30T15:11:38;15.30;99.90
14053;DHT22;7101;51.600;7.310;2023-08-30T15:14:07;15.10;99.90
14053;DHT22;7101;51.600;7.310;2023-08-30T15:16:34;15.00;99.90
14053;DHT22;7101;51.600;7.310;2023-08-30T15:19:02;15.00;99.90
14053;DHT22;7101;51.600;7.310;2023-08-30T15:21:28;14.90;99.90
14053;DHT22;7101;51.600;7.310;2023-08-30T15:23:55;14.90;99.90
14053;DHT22;7101;51.600;7.310;2023-08-30T15:26:22;14.90;99.90
14053;DHT22;7101;51.600;7.310;2023-08-30T15:28:51;14.90;99.90
14053;DHT22;7101;51.600;7.310;2023-08-30T15:31:20;14.90;99.90
14053;DHT22;7101;51.600;7.310;2023-08-30T15:33:47;14.80;99.90
14053;DHT22;7101;51.600;7.310;2023-08-30T15:36:14;14.90;99.90
14053;DHT22;7101;51.600;7.310;2023-08-30T15:38:43;14.90;99.90
14053;DHT22;7101;51.600;7.310;2023-08-30T15:41:13;14.90;99.90
14053;DHT22;7101;51.600;7.310;2023-08-30T15:43:40;14.90;99.90
14053;DHT22;7101;51.600;7.310;2023-08-30T15:46:07;14.80;99.90
14053;DHT22;7101;51.600;7.310;2023-08-30T15:48:36;14.80;99.90
14053;DHT22;7101;51.600;7.310;2023-08-30T15:51:04;14.80;99.90